Dades meteomassalio
Diari Summary for Gener 13, 2017 Units:  English    Metric   Both
« Previous Day
Next Day »
Diari Semanal Mensual Anual Personalitzat
  Maxima: Minima: Mijana:
Temperatura: 54.5 °F 39.4 °F 47.1 °F
Rosada: 46 °F 31.6 °F 37.2 °F
Humitat: 80 % 52 % 69 %
Velocitat del vent: 43.7 mph 6.9 mph 24.5 mph
Racha vent: 43.7 mph - -
Vent:- - NW
Pressio: 30.3 in 30 in -
Pluja: 0 in    
Historical Graphs
 
 
Tabular Data for Gener 13, 2017
Time Temperature Dew Point Pressure Wind Wind Speed Wind Gust Humidity Rainfall Rate (Hourly) solar Conditions
00:02 54.5 °F 46 °F 30.1 in WNW 15 mph 15 mph 73 % 0 in 0.0 W/m2 CLR
00:07 54.3 °F 45.9 °F 30.1 in WNW 11.5 mph 11.5 mph 73 % 0 in 0.0 W/m2 CLR
00:12 54.5 °F 45.7 °F 30.1 in WNW 9.2 mph 9.2 mph 72 % 0 in 0.0 W/m2 CLR
00:17 54.3 °F 45.7 °F 30.1 in WNW 8.1 mph 8.1 mph 72 % 0 in 0.0 W/m2 CLR
00:22 54.3 °F 45.9 °F 30.1 in WNW 6.9 mph 6.9 mph 73 % 0 in 0.0 W/m2 CLR
00:27 54.1 °F 45.7 °F 30.1 in WNW 7 mph 7 mph 73 % 0 in 0.0 W/m2 CLR
00:32 54.1 °F 45.7 °F 30.1 in West 9.2 mph 9.2 mph 73 % 0 in 0.0 W/m2 CLR
00:37 54 °F 45.5 °F 30.1 in WNW 12.7 mph 12.7 mph 73 % 0 in 0.0 W/m2 CLR
00:42 54 °F 45.9 °F 30.1 in West 9.2 mph 9.2 mph 74 % 0 in 0.0 W/m2 CLR
00:47 53.8 °F 45.7 °F 30.1 in West 8.1 mph 8.1 mph 74 % 0 in 0.0 W/m2 CLR
00:52 53.8 °F 45.7 °F 30.1 in WNW 9.2 mph 9.2 mph 74 % 0 in 0.0 W/m2 CLR
00:57 53.8 °F 45.7 °F 30.1 in WNW 8.1 mph 8.1 mph 74 % 0 in 0.0 W/m2 CLR
01:02 53.8 °F 45.7 °F 30.1 in West 8.1 mph 8.1 mph 74 % 0 in 0.0 W/m2 CLR
01:07 53.6 °F 45.5 °F 30.1 in WNW 9.2 mph 9.2 mph 74 % 0 in 0.0 W/m2 CLR
01:12 53.4 °F 45.3 °F 30.1 in WNW 10.4 mph 10.4 mph 74 % 0 in 0.0 W/m2 CLR
01:17 53.6 °F 45.5 °F 30.1 in WNW 11.5 mph 11.5 mph 74 % 0 in 0.0 W/m2 CLR
01:22 53.8 °F 45.7 °F 30.1 in WNW 12.7 mph 12.7 mph 74 % 0 in 0.0 W/m2 CLR
01:27 53.6 °F 45.5 °F 30.1 in WNW 10.4 mph 10.4 mph 74 % 0 in 0.0 W/m2 CLR
01:32 53.4 °F 45.3 °F 30.1 in WNW 9.2 mph 9.2 mph 74 % 0 in 0.0 W/m2 CLR
01:37 53.2 °F 45.7 °F 30.1 in WNW 10.4 mph 10.4 mph 75 % 0 in 0.0 W/m2 CLR
01:42 53.2 °F 45.5 °F 30 in WNW 11 mph 11 mph 75 % 0 in 0.0 W/m2 CLR
01:47 53.2 °F 45.5 °F 30 in WNW 13.8 mph 13.8 mph 75 % 0 in 0.0 W/m2 CLR
01:52 53.2 °F 45.5 °F 30 in WNW 10.4 mph 10.4 mph 75 % 0 in 0.0 W/m2 CLR
01:57 53.1 °F 45.3 °F 30 in WNW 9 mph 9 mph 75 % 0 in 0.0 W/m2 CLR
02:02 52.9 °F 45.1 °F 30 in WNW 8 mph 8 mph 75 % 0 in 0.0 W/m2 CLR
02:07 52.3 °F 45.1 °F 30 in WNW 12 mph 12 mph 76 % 0 in 0.0 W/m2 CLR
02:12 52.5 °F 45.1 °F 30 in NW 15 mph 15 mph 76 % 0 in 0.0 W/m2 CLR
02:17 52.5 °F 45.1 °F 30 in NW 15 mph 15 mph 76 % 0 in 0.0 W/m2 CLR
02:22 52.5 °F 45.1 °F 30 in NW 14 mph 14 mph 76 % 0 in 0.0 W/m2 CLR
02:27 52.3 °F 45.1 °F 30 in NW 13.8 mph 13.8 mph 76 % 0 in 0.0 W/m2 CLR
02:32 52.3 °F 45.3 °F 30 in NW 17 mph 17 mph 77 % 0 in 0.0 W/m2 CLR
02:37 52.3 °F 45.3 °F 30 in NW 19.6 mph 19.6 mph 77 % 0 in 0.0 W/m2 CLR
02:42 52.5 °F 45.1 °F 30 in NW 19.6 mph 19.6 mph 76 % 0 in 0.0 W/m2 CLR
02:47 52.5 °F 45.1 °F 30 in NW 19.6 mph 19.6 mph 76 % 0 in 0.0 W/m2 CLR
02:52 52.5 °F 45.5 °F 30.1 in NW 17.3 mph 17.3 mph 77 % 0 in 0.0 W/m2 CLR
02:57 52.5 °F 45.1 °F 30.1 in NW 19.6 mph 19.6 mph 76 % 0 in 0.0 W/m2 CLR
03:02 52.7 °F 45.3 °F 30.1 in NW 17.3 mph 17.3 mph 76 % 0 in 0.0 W/m2 CLR
03:07 52.7 °F 45.3 °F 30.1 in NW 18.4 mph 18.4 mph 76 % 0 in 0.0 W/m2 CLR
03:12 52.5 °F 45 °F 30.1 in NW 18.4 mph 18.4 mph 75 % 0 in 0.0 W/m2 CLR
03:17 52.5 °F 45.1 °F 30.1 in NW 16.1 mph 16.1 mph 76 % 0 in 0.0 W/m2 CLR
03:22 52.3 °F 45.1 °F 30.1 in NW 21.9 mph 21.9 mph 76 % 0 in 0.0 W/m2 CLR
03:27 52.3 °F 45 °F 30.1 in NW 20.7 mph 20.7 mph 76 % 0 in 0.0 W/m2 CLR
03:32 52.2 °F 45 °F 30.1 in NW 17 mph 17 mph 76 % 0 in 0.0 W/m2 CLR
03:37 52 °F 44.8 °F 30.1 in NW 15 mph 15 mph 76 % 0 in 0.0 W/m2 CLR
03:42 52 °F 44.6 °F 30.1 in NW 18.4 mph 18.4 mph 76 % 0 in 0.0 W/m2 CLR
03:47 51.8 °F 44.1 °F 30.1 in NW 18 mph 18 mph 75 % 0 in 0.0 W/m2 CLR
03:52 51.6 °F 44.1 °F 30.1 in NW 19.6 mph 19.6 mph 75 % 0 in 0.0 W/m2 CLR
03:57 51.4 °F 43.9 °F 30.1 in NW 18 mph 18 mph 75 % 0 in 0.0 W/m2 CLR
04:02 51.4 °F 43.5 °F 30.1 in NW 19.6 mph 19.6 mph 74 % 0 in 0.0 W/m2 CLR
04:07 51.4 °F 43.3 °F 30.1 in NW 23 mph 23 mph 74 % 0 in 0.0 W/m2 CLR
04:12 51.3 °F 43.3 °F 30.1 in NW 19.6 mph 19.6 mph 74 % 0 in 0.0 W/m2 CLR
04:17 51.1 °F 43.2 °F 30.1 in NW 28.8 mph 28.8 mph 74 % 0 in 0.0 W/m2 CLR
04:22 51.1 °F 43.3 °F 30.1 in NW 18.4 mph 18.4 mph 75 % 0 in 0.0 W/m2 CLR
04:27 51.1 °F 43.3 °F 30.1 in NW 18 mph 18 mph 75 % 0 in 0.0 W/m2 CLR
04:32 50.9 °F 43.3 °F 30.1 in NNW 26.5 mph 26.5 mph 75 % 0 in 0.0 W/m2 CLR
04:37 50.9 °F 43.3 °F 30.1 in NNW 21.9 mph 21.9 mph 75 % 0 in 0.0 W/m2 CLR
04:42 50.7 °F 43.2 °F 30.1 in NW 24.2 mph 24.2 mph 75 % 0 in 0.0 W/m2 CLR
04:47 50.5 °F 43.3 °F 30.1 in NNW 19.6 mph 19.6 mph 76 % 0 in 0.0 W/m2 CLR
04:48 50.5 °F 43.3 °F 30.1 in NNW 19.6 mph 19.6 mph 76 % 0 in 0.0 W/m2 CLR
04:53 50.4 °F 43.2 °F 30.1 in NNW 22 mph 22 mph 76 % 0 in 0.0 W/m2 CLR
04:58 50.2 °F 43 °F 30.1 in NW 24.2 mph 24.2 mph 76 % 0 in 0.0 W/m2 CLR
05:03 50 °F 42.4 °F 30.1 in NW 29.9 mph 29.9 mph 75 % 0 in 0.0 W/m2 CLR
05:08 49.6 °F 42.6 °F 30.1 in NW 28.8 mph 28.8 mph 77 % 0 in 0.0 W/m2 CLR
05:13 49.5 °F 42.3 °F 30.1 in NW 20.7 mph 20.7 mph 76 % 0 in 0.0 W/m2 CLR
05:18 49.5 °F 42.1 °F 30.1 in NW 18.4 mph 18.4 mph 76 % 0 in 0.0 W/m2 CLR
05:23 49.3 °F 42.3 °F 30.1 in NW 21.9 mph 21.9 mph 77 % 0 in 0.0 W/m2 CLR
05:28 48.9 °F 41.7 °F 30.1 in NW 23 mph 23 mph 76 % 0 in 0.0 W/m2 CLR
05:33 48.7 °F 41.2 °F 30.1 in NW 26.5 mph 26.5 mph 75 % 0 in 0.0 W/m2 CLR
05:38 48.6 °F 41 °F 30.1 in NW 19.6 mph 19.6 mph 75 % 0 in 0.0 W/m2 CLR
05:43 48.6 °F 41 °F 30.1 in NW 24.2 mph 24.2 mph 75 % 0 in 0.0 W/m2 CLR
05:48 48.6 °F 40.8 °F 30.1 in NW 21.9 mph 21.9 mph 75 % 0 in 0.0 W/m2 CLR
05:53 48.4 °F 40.5 °F 30.1 in NW 23 mph 23 mph 74 % 0 in 0.0 W/m2 CLR
05:58 48.4 °F 40.6 °F 30.1 in NW 24.2 mph 24.2 mph 75 % 0 in 0.0 W/m2 CLR
06:03 48.2 °F 40.6 °F 30.1 in NW 25.3 mph 25.3 mph 75 % 0 in 0.0 W/m2 CLR
06:08 48.2 °F 40.6 °F 30.1 in NW 23 mph 23 mph 75 % 0 in 0.0 W/m2 CLR
06:13 48 °F 40.5 °F 30.1 in NW 22 mph 22 mph 75 % 0 in 0.0 W/m2 CLR
06:18 47.8 °F 40.6 °F 30.1 in NW 18.4 mph 18.4 mph 76 % 0 in 0.0 W/m2 CLR
06:23 47.8 °F 40.6 °F 30.1 in NW 24.2 mph 24.2 mph 76 % 0 in 0.0 W/m2 CLR
06:28 47.7 °F 41.2 °F 30.1 in NW 16.1 mph 16.1 mph 78 % 0 in 0.0 W/m2 CLR
06:33 47.5 °F 40.8 °F 30.1 in NW 26.5 mph 26.5 mph 78 % 0 in 0.0 W/m2 CLR
06:38 47.1 °F 40.8 °F 30.1 in NW 19.6 mph 19.6 mph 79 % 0 in 0.0 W/m2 CLR
06:43 47.1 °F 40.8 °F 30.1 in NW 20.7 mph 20.7 mph 79 % 0 in 0.0 W/m2 CLR
06:48 46.9 °F 40.8 °F 30.1 in NW 19.6 mph 19.6 mph 79 % 0 in 0.0 W/m2 CLR
06:53 47.1 °F 40.6 °F 30.1 in NW 19.6 mph 19.6 mph 78 % 0 in 0.0 W/m2 CLR
06:58 46.9 °F 40.8 °F 30.1 in NW 19.6 mph 19.6 mph 79 % 0 in 0.0 W/m2 CLR
07:03 46.9 °F 40.8 °F 30.1 in NW 19.6 mph 19.6 mph 79 % 0 in 0.0 W/m2 CLR
07:08 46.9 °F 40.6 °F 30.1 in NW 25.3 mph 25.3 mph 79 % 0 in 0.0 W/m2 CLR
07:13 46.9 °F 40.5 °F 30.1 in NW 18.4 mph 18.4 mph 78 % 0 in 0.0 W/m2 CLR
07:18 46.9 °F 40.5 °F 30.1 in NW 24.2 mph 24.2 mph 78 % 0 in 0.0 W/m2 CLR
07:23 46.9 °F 39.7 °F 30.1 in NW 25.3 mph 25.3 mph 76 % 0 in 0.0 W/m2 CLR
07:28 46.9 °F 39.6 °F 30.1 in NW 25.3 mph 25.3 mph 75 % 0 in 0.0 W/m2 CLR
07:33 46.9 °F 39 °F 30.1 in NW 28.8 mph 28.8 mph 74 % 0 in 0.0 W/m2 CLR
07:38 46.9 °F 39 °F 30.1 in NW 23 mph 23 mph 74 % 0 in 0.0 W/m2 CLR
07:43 46.9 °F 38.7 °F 30.1 in NW 28.8 mph 28.8 mph 73 % 0 in 0.0 W/m2 CLR
07:48 46.8 °F 38.1 °F 30.1 in NW 31 mph 31 mph 72 % 0 in 0.0 W/m2 CLR
07:53 46.8 °F 37.6 °F 30.1 in NW 28.8 mph 28.8 mph 70 % 0 in 0.0 W/m2 CLR
07:58 46.8 °F 37.4 °F 30.1 in NW 29 mph 29 mph 70 % 0 in 0.0 W/m2 CLR
08:03 46.6 °F 37 °F 30.1 in NW 29.9 mph 29.9 mph 69 % 0 in 0.0 W/m2 CLR
08:08 46.4 °F 36.3 °F 30.1 in NW 30 mph 30 mph 68 % 0 in 0.0 W/m2 CLR
08:13 46.4 °F 36.9 °F 30.1 in NW 28.8 mph 28.8 mph 69 % 0 in 0.0 W/m2 CLR
08:18 46.4 °F 36.3 °F 30.1 in NW 34.5 mph 34.5 mph 68 % 0 in 0.0 W/m2
08:23 46.4 °F 36.3 °F 30.1 in NW 34.5 mph 34.5 mph 68 % 0 in 0.0 W/m2 OVC
08:28 46.2 °F 37 °F 30.1 in NW 28.8 mph 28.8 mph 70 % 0 in 0.0 W/m2 OVC
08:33 46.2 °F 37.2 °F 30.1 in NW 26.5 mph 26.5 mph 71 % 0 in 7.0 W/m2 BKN
08:38 46 °F 37.2 °F 30.1 in NW 28.8 mph 28.8 mph 71 % 0 in 12.0 W/m2 BKN
08:43 46 °F 37 °F 30.1 in NW 33.4 mph 33.4 mph 71 % 0 in 12.0 W/m2 BKN
08:48 45.9 °F 36.3 °F 30.1 in NW 34.5 mph 34.5 mph 69 % 0 in 12.0 W/m2 BKN
08:53 45.7 °F 36.9 °F 30.1 in NW 31.1 mph 31.1 mph 71 % 0 in 18.0 W/m2 BKN
08:59 45.7 °F 36.9 °F 30.1 in NW 23 mph 23 mph 71 % 0 in 19.0 W/m2 BKN
09:04 45.7 °F 36.7 °F 30.1 in NW 29.9 mph 29.9 mph 71 % 0 in 35.0 W/m2 BKN
09:09 45.7 °F 36.7 °F 30.1 in NW 25.3 mph 25.3 mph 71 % 0 in 42.0 W/m2 BKN
09:14 45.3 °F 36.5 °F 30.1 in NW 27.6 mph 27.6 mph 71 % 0 in 46.0 W/m2 BKN
09:19 45.1 °F 36 °F 30.1 in NW 35.7 mph 35.7 mph 70 % 0 in 28.0 W/m2 BKN
09:24 45.1 °F 36 °F 30.1 in NW 34.5 mph 34.5 mph 70 % 0 in 63.0 W/m2 BKN
09:29 45.1 °F 35.6 °F 30.1 in NW 32.2 mph 32.2 mph 69 % 0 in 91.0 W/m2 BKN
09:34 45.3 °F 35.8 °F 30.1 in NW 25.3 mph 25.3 mph 69 % 0 in 104.0 W/m2 BKN
09:39 45.3 °F 35.4 °F 30.1 in NW 36.8 mph 36.8 mph 68 % 0 in 98.0 W/m2 BKN
09:44 45.5 °F 35.4 °F 30.1 in NW 28.8 mph 28.8 mph 68 % 0 in 120.0 W/m2 BKN
09:49 45.5 °F 35.4 °F 30.1 in NNW 33.4 mph 33.4 mph 68 % 0 in 116.0 W/m2 BKN
09:54 45.7 °F 35.6 °F 30.2 in NNW 23 mph 23 mph 68 % 0 in 104.0 W/m2 BKN
09:59 45.7 °F 35.4 °F 30.2 in NW 31 mph 31 mph 67 % 0 in 165.0 W/m2 BKN
10:04 45.9 °F 35.4 °F 30.2 in NW 23 mph 23 mph 67 % 0 in 109.0 W/m2 BKN
10:09 45.9 °F 35.6 °F 30.2 in NW 27 mph 27 mph 67 % 0 in 163.0 W/m2 BKN
10:14 45.9 °F 35.6 °F 30.2 in NNW 32.2 mph 32.2 mph 67 % 0 in 214.0 W/m2 BKN
10:19 46 °F 35.8 °F 30.1 in NNW 27.6 mph 27.6 mph 67 % 0 in 234.0 W/m2 SCT
10:24 46 °F 35.8 °F 30.1 in NNW 29.9 mph 29.9 mph 67 % 0 in 250.0 W/m2 SCT
10:29 46 °F 35.8 °F 30.1 in NNW 36 mph 36 mph 67 % 0 in 262.0 W/m2 SCT
10:34 46.2 °F 35.8 °F 30.1 in NW 34.5 mph 34.5 mph 67 % 0 in 274.0 W/m2 SCT
10:39 46.2 °F 35.8 °F 30.1 in NW 34.5 mph 34.5 mph 67 % 0 in 285.0 W/m2 SCT
10:44 46.4 °F 36 °F 30.1 in NW 28.8 mph 28.8 mph 67 % 0 in 294.0 W/m2 SCT
10:49 46.6 °F 35.8 °F 30.1 in NNW 34.5 mph 34.5 mph 66 % 0 in 304.0 W/m2 SCT
10:54 46.8 °F 36 °F 30.1 in NNW 31.1 mph 31.1 mph 66 % 0 in 315.0 W/m2 SCT
10:59 46.9 °F 36.1 °F 30.1 in NW 34 mph 34 mph 66 % 0 in 323.0 W/m2 FEW
11:04 46.9 °F 35.4 °F 30.2 in NW 33.4 mph 33.4 mph 64 % 0 in 330.0 W/m2 FEW
11:09 46.9 °F 35.8 °F 30.1 in NW 37 mph 37 mph 65 % 0 in 346.0 W/m2 FEW
11:14 46.9 °F 35.8 °F 30.1 in NW 33 mph 33 mph 65 % 0 in 352.0 W/m2 FEW
11:19 47.1 °F 36 °F 30.1 in NW 29.9 mph 29.9 mph 65 % 0 in 359.0 W/m2 FEW
11:24 47.1 °F 34.7 °F 30.1 in NNW 35.7 mph 35.7 mph 62 % 0 in 369.0 W/m2 FEW
11:29 46.9 °F 34.5 °F 30.2 in NW 33.4 mph 33.4 mph 62 % 0 in 376.0 W/m2 FEW
11:34 47.1 °F 34.3 °F 30.1 in NW 34.5 mph 34.5 mph 61 % 0 in 383.0 W/m2 FEW
11:39 47.3 °F 34.5 °F 30.1 in NW 38 mph 38 mph 61 % 0 in 392.0 W/m2 FEW
11:44 47.5 °F 34 °F 30.2 in NW 40.3 mph 40.3 mph 59 % 0 in 397.0 W/m2 FEW
11:49 47.7 °F 34 °F 30.2 in NNW 33.4 mph 33.4 mph 59 % 0 in 404.0 W/m2 FEW
11:54 47.7 °F 34.2 °F 30.1 in NNW 34.5 mph 34.5 mph 59 % 0 in 408.0 W/m2 FEW
11:59 47.8 °F 34.2 °F 30.1 in NNW 35.7 mph 35.7 mph 59 % 0 in 417.0 W/m2 FEW
12:04 48 °F 34 °F 30.1 in NW 39.1 mph 39.1 mph 58 % 0 in 422.0 W/m2 CLR
12:09 47.7 °F 33.6 °F 30.1 in NW 34.5 mph 34.5 mph 58 % 0 in 432.0 W/m2 CLR
12:14 47.8 °F 34.5 °F 30.1 in NW 43.7 mph 43.7 mph 60 % 0 in 441.0 W/m2 CLR
12:19 48 °F 35.2 °F 30.1 in NW 26.5 mph 26.5 mph 61 % 0 in 438.0 W/m2 CLR
12:24 47.8 °F 35.1 °F 30.1 in NW 35.7 mph 35.7 mph 61 % 0 in 441.0 W/m2 CLR
12:29 47.8 °F 34.7 °F 30.1 in NW 34.5 mph 34.5 mph 60 % 0 in 446.0 W/m2 CLR
12:34 47.8 °F 34.2 °F 30.1 in NW 34.5 mph 34.5 mph 59 % 0 in 452.0 W/m2 CLR
12:39 48 °F 34.9 °F 30.1 in NW 36 mph 36 mph 60 % 0 in 450.0 W/m2 CLR
12:44 47.8 °F 35.1 °F 30.1 in NW 34.5 mph 34.5 mph 61 % 0 in 452.0 W/m2 CLR
12:49 47.8 °F 34.7 °F 30.1 in NW 34.5 mph 34.5 mph 60 % 0 in 464.0 W/m2 CLR
12:54 48.2 °F 35.1 °F 30.1 in NW 31.1 mph 31.1 mph 60 % 0 in 462.0 W/m2 CLR
12:59 48.4 °F 34.3 °F 30.1 in NW 31.1 mph 31.1 mph 58 % 0 in 466.0 W/m2 CLR
13:04 48.7 °F 34.5 °F 30.1 in NW 34.5 mph 34.5 mph 58 % 0 in 496.0 W/m2 CLR
13:09 48.7 °F 34.2 °F 30.1 in NW 38 mph 38 mph 57 % 0 in 462.0 W/m2 CLR
13:15 48.6 °F 34 °F 30.1 in NW 29.9 mph 29.9 mph 57 % 0 in 468.0 W/m2 CLR
13:20 48.6 °F 34 °F 30.1 in NNW 36 mph 36 mph 57 % 0 in 476.0 W/m2 CLR
13:25 48.6 °F 33.6 °F 30.1 in NNW 30 mph 30 mph 56 % 0 in 473.0 W/m2 CLR
13:30 48.4 °F 34 °F 30.1 in NNW 32.2 mph 32.2 mph 57 % 0 in 476.0 W/m2 CLR
13:35 48.2 °F 33.3 °F 30.1 in NW 38 mph 38 mph 56 % 0 in 455.0 W/m2 CLR
13:40 48.4 °F 33.8 °F 30.1 in NW 31.1 mph 31.1 mph 57 % 0 in 461.0 W/m2 CLR
13:45 48.6 °F 34 °F 30.1 in NW 26.5 mph 26.5 mph 57 % 0 in 478.0 W/m2 CLR
13:50 48.2 °F 33.6 °F 30.1 in NW 39.1 mph 39.1 mph 57 % 0 in 448.0 W/m2 CLR
13:55 48.4 °F 34.3 °F 30.1 in NW 28.8 mph 28.8 mph 58 % 0 in 462.0 W/m2 CLR
14:00 48.6 °F 33.4 °F 30.1 in NW 42.6 mph 42.6 mph 56 % 0 in 438.0 W/m2 CLR
14:05 48.6 °F 33.4 °F 30.1 in NW 35.7 mph 35.7 mph 56 % 0 in 438.0 W/m2 CLR
14:10 48.7 °F 34.2 °F 30.1 in NW 26.5 mph 26.5 mph 57 % 0 in 452.0 W/m2 CLR
14:15 49.1 °F 33.6 °F 30.1 in NNW 39 mph 39 mph 55 % 0 in 503.0 W/m2 CLR
14:20 49.1 °F 34.2 °F 30.1 in NNW 23 mph 23 mph 56 % 0 in 425.0 W/m2 CLR
14:25 48.9 °F 33.1 °F 30.1 in NW 27.6 mph 27.6 mph 54 % 0 in 415.0 W/m2 CLR
14:30 48.7 °F 32.9 °F 30.1 in NW 34.5 mph 34.5 mph 54 % 0 in 411.0 W/m2 CLR
14:35 48.9 °F 32 °F 30.1 in NW 39.1 mph 39.1 mph 52 % 0 in 399.0 W/m2 CLR
14:40 48.6 °F 31.8 °F 30.1 in NNW 37 mph 37 mph 52 % 0 in 367.0 W/m2 CLR
14:45 48.6 °F 32.5 °F 30.1 in NNW 32.2 mph 32.2 mph 54 % 0 in 387.0 W/m2 CLR
14:50 48.6 °F 32.5 °F 30.1 in NW 34.5 mph 34.5 mph 54 % 0 in 381.0 W/m2 CLR
14:55 48.6 °F 32.7 °F 30.1 in NW 28.8 mph 28.8 mph 54 % 0 in 369.0 W/m2 CLR
15:00 48.7 °F 32.9 °F 30.1 in NNW 25.3 mph 25.3 mph 54 % 0 in 367.0 W/m2 CLR
15:05 48.9 °F 33.1 °F 30.1 in NNW 31.1 mph 31.1 mph 54 % 0 in 360.0 W/m2 CLR
15:10 49.1 °F 33.3 °F 30.1 in NW 28 mph 28 mph 54 % 0 in 348.0 W/m2 CLR
15:15 48.7 °F 32.9 °F 30.1 in NW 27 mph 27 mph 54 % 0 in 346.0 W/m2 CLR
15:20 48.6 °F 32.2 °F 30.1 in NW 33.4 mph 33.4 mph 53 % 0 in 334.0 W/m2 CLR
15:25 48.6 °F 32.7 °F 30.1 in NW 26.5 mph 26.5 mph 54 % 0 in 322.0 W/m2 CLR
15:30 48.7 °F 32.9 °F 30.1 in NW 19.6 mph 19.6 mph 54 % 0 in 311.0 W/m2 CLR
15:35 48.9 °F 33.4 °F 30.1 in NNW 23 mph 23 mph 55 % 0 in 306.0 W/m2 CLR
15:40 48.9 °F 33.4 °F 30.1 in NW 25.3 mph 25.3 mph 55 % 0 in 295.0 W/m2 CLR
15:45 48.7 °F 33.8 °F 30.1 in NW 17.3 mph 17.3 mph 56 % 0 in 279.0 W/m2 CLR
15:50 48.7 °F 33.3 °F 30.1 in NW 29.9 mph 29.9 mph 55 % 0 in 271.0 W/m2 CLR
15:55 48.4 °F 33.4 °F 30.1 in NW 25.3 mph 25.3 mph 56 % 0 in 258.0 W/m2 CLR
16:00 48.4 °F 33.4 °F 30.1 in NNW 29.9 mph 29.9 mph 56 % 0 in 246.0 W/m2 CLR
16:05 48.4 °F 33.3 °F 30.1 in NW 28.8 mph 28.8 mph 56 % 0 in 232.0 W/m2 CLR
16:10 48.2 °F 33.6 °F 30.1 in NW 25.3 mph 25.3 mph 57 % 0 in 218.0 W/m2 CLR
16:15 48.2 °F 33.3 °F 30.1 in NW 29.9 mph 29.9 mph 56 % 0 in 190.0 W/m2 CLR
16:20 48 °F 33.6 °F 30.1 in NW 26.5 mph 26.5 mph 57 % 0 in 186.0 W/m2 CLR
16:25 47.8 °F 33.4 °F 30.1 in NW 27.6 mph 27.6 mph 57 % 0 in 174.0 W/m2 CLR
16:30 47.8 °F 33.3 °F 30.1 in NW 35 mph 35 mph 57 % 0 in 158.0 W/m2 CLR
16:35 47.7 °F 33.6 °F 30.1 in NW 34.5 mph 34.5 mph 58 % 0 in 142.0 W/m2 CLR
16:40 47.5 °F 33.1 °F 30.1 in NW 35.7 mph 35.7 mph 57 % 0 in 125.0 W/m2 CLR
16:45 47.5 °F 32.9 °F 30.1 in NW 33.4 mph 33.4 mph 57 % 0 in 113.0 W/m2 CLR
16:50 47.3 °F 32.4 °F 30.1 in NW 20.7 mph 20.7 mph 56 % 0 in 100.0 W/m2 CLR
16:56 47.1 °F 32.5 °F 30.1 in NW 34.5 mph 34.5 mph 57 % 0 in 86.0 W/m2 CLR
17:01 46.9 °F 32.5 °F 30.1 in NW 31.1 mph 31.1 mph 57 % 0 in 72.0 W/m2 CLR
17:06 46.9 °F 32.5 °F 30.1 in NW 32.2 mph 32.2 mph 57 % 0 in 62.0 W/m2 CLR
17:11 46.9 °F 32 °F 30.1 in NW 34.5 mph 34.5 mph 56 % 0 in 49.0 W/m2 OVC
17:16 46.8 °F 31.8 °F 30.1 in NW 24.2 mph 24.2 mph 56 % 0 in 39.0 W/m2 OVC
17:21 46.6 °F 31.6 °F 30.1 in NW 31.1 mph 31.1 mph 56 % 0 in 26.0 W/m2 OVC
17:26 46.2 °F 31.8 °F 30.1 in NW 35.7 mph 35.7 mph 57 % 0 in 19.0 W/m2
17:31 46 °F 32.2 °F 30.2 in NW 36.8 mph 36.8 mph 58 % 0 in 14.0 W/m2
17:36 45.9 °F 32.4 °F 30.2 in NW 27.6 mph 27.6 mph 59 % 0 in 12.0 W/m2 OVC
17:41 45.7 °F 32.5 °F 30.2 in NW 28.8 mph 28.8 mph 60 % 0 in 9.0 W/m2 OVC
17:46 45.3 °F 32.7 °F 30.2 in NW 22 mph 22 mph 61 % 0 in 7.0 W/m2 OVC
17:51 45.1 °F 32.5 °F 30.2 in NNW 20.7 mph 20.7 mph 61 % 0 in 5.0 W/m2 OVC
17:56 45 °F 32.7 °F 30.2 in NW 25.3 mph 25.3 mph 62 % 0 in 0.0 W/m2 CLR
18:01 45 °F 33.3 °F 30.2 in NW 26.5 mph 26.5 mph 63 % 0 in 0.0 W/m2 CLR
18:06 45 °F 33.3 °F 30.2 in NW 24.2 mph 24.2 mph 63 % 0 in 0.0 W/m2 CLR
18:11 45 °F 33.4 °F 30.2 in NNW 24.2 mph 24.2 mph 64 % 0 in 0.0 W/m2 CLR
18:16 44.8 °F 33.1 °F 30.2 in NW 27.6 mph 27.6 mph 63 % 0 in 0.0 W/m2 CLR
18:21 44.8 °F 32.9 °F 30.2 in NW 26.5 mph 26.5 mph 63 % 0 in 0.0 W/m2 CLR
18:26 44.6 °F 32.7 °F 30.2 in NW 24.2 mph 24.2 mph 63 % 0 in 0.0 W/m2 CLR
18:31 44.4 °F 32.5 °F 30.2 in NW 30 mph 30 mph 63 % 0 in 0.0 W/m2 CLR
18:36 44.2 °F 32.9 °F 30.2 in NW 29.9 mph 29.9 mph 64 % 0 in 0.0 W/m2 CLR
18:41 44.2 °F 33.3 °F 30.2 in NW 32.2 mph 32.2 mph 65 % 0 in 0.0 W/m2 CLR
18:46 44.1 °F 33.1 °F 30.2 in NNW 27.6 mph 27.6 mph 65 % 0 in 0.0 W/m2 CLR
18:51 44.1 °F 33.1 °F 30.2 in NW 32 mph 32 mph 65 % 0 in 0.0 W/m2 CLR
18:56 44.1 °F 33.1 °F 30.2 in NW 31.1 mph 31.1 mph 65 % 0 in 0.0 W/m2 CLR
19:01 44.1 °F 33.4 °F 30.2 in NW 28.8 mph 28.8 mph 66 % 0 in 0.0 W/m2 CLR
19:06 44.1 °F 33.1 °F 30.2 in NW 32.2 mph 32.2 mph 65 % 0 in 0.0 W/m2 CLR
19:11 43.9 °F 33.3 °F 30.2 in NW 33.4 mph 33.4 mph 66 % 0 in 0.0 W/m2 CLR
19:16 43.9 °F 33.6 °F 30.2 in NW 26.5 mph 26.5 mph 67 % 0 in 0.0 W/m2 CLR
19:21 43.5 °F 34 °F 30.2 in NW 20 mph 20 mph 69 % 0 in 0.0 W/m2 CLR
19:26 43.3 °F 34.2 °F 30.2 in NW 26.5 mph 26.5 mph 70 % 0 in 0.0 W/m2 CLR
19:31 43 °F 34.2 °F 30.2 in NW 23 mph 23 mph 71 % 0 in 0.0 W/m2 CLR
19:36 43 °F 34.2 °F 30.2 in NW 24.2 mph 24.2 mph 71 % 0 in 0.0 W/m2 CLR
19:41 42.6 °F 34 °F 30.2 in NW 24.2 mph 24.2 mph 71 % 0 in 0.0 W/m2 CLR
19:46 42.6 °F 34.2 °F 30.2 in NW 29.9 mph 29.9 mph 72 % 0 in 0.0 W/m2 CLR
19:51 42.4 °F 34.2 °F 30.2 in WNW 23 mph 23 mph 72 % 0 in 0.0 W/m2 CLR
19:56 42.4 °F 34.2 °F 30.2 in NW 26.5 mph 26.5 mph 72 % 0 in 0.0 W/m2 CLR
20:01 42.6 °F 34.2 °F 30.2 in NW 31.1 mph 31.1 mph 72 % 0 in 0.0 W/m2 CLR
20:06 42.4 °F 34.2 °F 30.2 in NW 19.6 mph 19.6 mph 72 % 0 in 0.0 W/m2 CLR
20:11 42.4 °F 34 °F 30.2 in NW 21.9 mph 21.9 mph 72 % 0 in 0.0 W/m2 CLR
20:16 42.3 °F 33.8 °F 30.2 in NW 16.1 mph 16.1 mph 72 % 0 in 0.0 W/m2 CLR
20:21 42.1 °F 34.2 °F 30.2 in NW 23 mph 23 mph 73 % 0 in 0.0 W/m2 CLR
20:26 41.9 °F 34 °F 30.2 in NW 19.6 mph 19.6 mph 73 % 0 in 0.0 W/m2 CLR
20:31 41.9 °F 34 °F 30.2 in WNW 26.5 mph 26.5 mph 73 % 0 in 0.0 W/m2 CLR
20:36 41.9 °F 34 °F 30.2 in NW 19.6 mph 19.6 mph 73 % 0 in 0.0 W/m2 CLR
20:41 41.7 °F 33.8 °F 30.2 in NW 22 mph 22 mph 73 % 0 in 0.0 W/m2 CLR
20:46 41.7 °F 33.8 °F 30.2 in NW 29.9 mph 29.9 mph 73 % 0 in 0.0 W/m2 CLR
20:51 41.7 °F 33.8 °F 30.2 in NW 19.6 mph 19.6 mph 73 % 0 in 0.0 W/m2 CLR
20:56 41.5 °F 33.6 °F 30.2 in NW 18.4 mph 18.4 mph 73 % 0 in 0.0 W/m2 CLR
21:01 41.5 °F 33.6 °F 30.2 in NW 18 mph 18 mph 73 % 0 in 0.0 W/m2 CLR
21:06 41.5 °F 33.4 °F 30.2 in NW 26.5 mph 26.5 mph 73 % 0 in 0.0 W/m2 CLR
21:11 41.4 °F 33.6 °F 30.2 in NW 23 mph 23 mph 74 % 0 in 0.0 W/m2 CLR
21:16 41.4 °F 33.6 °F 30.2 in NW 21.9 mph 21.9 mph 74 % 0 in 0.0 W/m2 CLR
21:21 41.2 °F 33.4 °F 30.2 in NW 15 mph 15 mph 74 % 0 in 0.0 W/m2 CLR
21:26 41.2 °F 33.4 °F 30.2 in NW 17.3 mph 17.3 mph 74 % 0 in 0.0 W/m2 CLR
21:31 41.2 °F 33.4 °F 30.2 in WNW 17.3 mph 17.3 mph 74 % 0 in 0.0 W/m2 CLR
21:36 40.8 °F 33.3 °F 30.2 in WNW 19.6 mph 19.6 mph 74 % 0 in 0.0 W/m2 CLR
21:41 41 °F 33.3 °F 30.2 in WNW 19.6 mph 19.6 mph 74 % 0 in 0.0 W/m2 CLR
21:46 40.8 °F 33.4 °F 30.2 in NW 21.9 mph 21.9 mph 75 % 0 in 0.0 W/m2 CLR
21:51 40.8 °F 33.4 °F 30.2 in NW 16.1 mph 16.1 mph 75 % 0 in 0.0 W/m2 CLR
21:56 40.6 °F 33.6 °F 30.2 in NW 20.7 mph 20.7 mph 76 % 0 in 0.0 W/m2 CLR
22:01 40.6 °F 33.6 °F 30.2 in NW 17.3 mph 17.3 mph 76 % 0 in 0.0 W/m2 CLR
22:06 40.6 °F 33.6 °F 30.2 in NW 19.6 mph 19.6 mph 76 % 0 in 0.0 W/m2 CLR
22:11 40.6 °F 33.6 °F 30.2 in NW 18.4 mph 18.4 mph 76 % 0 in 0.0 W/m2 CLR
22:16 40.6 °F 33.6 °F 30.2 in NW 13 mph 13 mph 76 % 0 in 0.0 W/m2 CLR
22:21 40.8 °F 33.8 °F 30.2 in NW 15 mph 15 mph 76 % 0 in 0.0 W/m2 CLR
22:26 40.8 °F 34.2 °F 30.2 in NW 18.4 mph 18.4 mph 77 % 0 in 0.0 W/m2 CLR
22:31 40.6 °F 34 °F 30.2 in NW 19.6 mph 19.6 mph 77 % 0 in 0.0 W/m2 CLR
22:36 40.6 °F 34 °F 30.2 in NW 18 mph 18 mph 77 % 0 in 0.0 W/m2 CLR
22:41 40.3 °F 34 °F 30.2 in NW 19.6 mph 19.6 mph 78 % 0 in 0.0 W/m2 CLR
22:47 40.1 °F 33.8 °F 30.2 in NW 13.8 mph 13.8 mph 78 % 0 in 0.0 W/m2 CLR
22:52 39.9 °F 34 °F 30.2 in WNW 11.5 mph 12.9 mph 79 % 0 in 0.0 W/m2 CLR
22:57 39.7 °F 33.8 °F 30.2 in WNW 15 mph 15 mph 79 % 0 in 0.0 W/m2 CLR
23:02 39.7 °F 33.8 °F 30.2 in NW 16.1 mph 16.1 mph 79 % 0 in 0.0 W/m2 CLR
23:07 39.7 °F 33.6 °F 30.2 in NW 16.1 mph 16.1 mph 79 % 0 in 0.0 W/m2 CLR
23:12 39.6 °F 33.4 °F 30.2 in WNW 13 mph 13 mph 79 % 0 in 0.0 W/m2 CLR
23:17 39.4 °F 33.6 °F 30.2 in WNW 26 mph 26 mph 80 % 0 in 0.0 W/m2 CLR
23:22 39.6 °F 33.8 °F 30.2 in NW 19.6 mph 19.6 mph 80 % 0 in 0.0 W/m2 CLR
23:27 39.4 °F 33.6 °F 30.2 in WNW 18.4 mph 18.4 mph 80 % 0 in 0.0 W/m2 CLR
23:32 39.6 °F 33.8 °F 30.2 in WNW 20.7 mph 20.7 mph 80 % 0 in 0.0 W/m2 CLR
23:37 39.4 °F 33.6 °F 30.2 in NW 20.7 mph 20.7 mph 80 % 0 in 0.0 W/m2 CLR
23:42 39.6 °F 33.8 °F 30.2 in NW 18.4 mph 18.4 mph 80 % 0 in 0.0 W/m2 CLR
23:47 39.4 °F 33.6 °F 30.3 in NW 16.1 mph 16.1 mph 80 % 0 in 0.0 W/m2 CLR
23:52 39.4 °F 33.6 °F 30.3 in NW 12.7 mph 12.7 mph 80 % 0 in 0.0 W/m2 CLR
23:57 39.4 °F 33.6 °F 30.3 in NW 17.3 mph 17.3 mph 80 % 0 in 0.0 W/m2 CLR
Lo Temps de Massalio
Compliments of Weather Underground - 1.25 mb